createdAt,value
2022-09-15T00:00:32.087Z,12.29
2022-09-15T00:01:32.161Z,12.30
2022-09-15T00:02:32.266Z,12.30
2022-09-15T00:03:32.118Z,12.33
2022-09-15T00:04:32.138Z,12.36
2022-09-15T00:05:32.171Z,12.35
2022-09-15T00:06:32.188Z,12.33
2022-09-15T00:07:32.219Z,12.33
2022-09-15T00:08:32.239Z,12.35
2022-09-15T00:09:32.259Z,12.33
2022-09-15T00:10:32.279Z,12.39
2022-09-15T00:11:32.299Z,12.37
2022-09-15T00:12:32.331Z,12.37
2022-09-15T00:13:32.350Z,12.37
2022-09-15T00:14:32.371Z,12.33
2022-09-15T00:15:32.402Z,12.33
2022-09-15T00:16:32.431Z,12.33
2022-09-15T00:17:32.467Z,12.30
2022-09-15T00:18:32.482Z,12.32
2022-09-15T00:19:32.526Z,12.29
2022-09-15T00:20:32.542Z,12.30
2022-09-15T00:21:32.561Z,12.23
2022-09-15T00:22:32.585Z,12.18
2022-09-15T00:23:32.605Z,12.17
2022-09-15T00:24:32.635Z,12.15
2022-09-15T00:25:32.656Z,12.14
2022-09-15T00:26:32.681Z,12.08
2022-09-15T00:27:32.703Z,12.10
2022-09-15T00:28:32.715Z,12.11
2022-09-15T00:29:32.743Z,12.10
2022-09-15T00:30:32.828Z,12.08
2022-09-15T00:31:32.745Z,12.07
2022-09-15T00:32:32.766Z,12.03
2022-09-15T00:33:32.798Z,11.99
2022-09-15T00:34:32.807Z,11.93
2022-09-15T00:35:32.858Z,11.93
2022-09-15T00:36:32.877Z,11.88
2022-09-15T00:37:32.898Z,11.89
2022-09-15T00:38:32.928Z,11.85
2022-09-15T00:39:32.957Z,11.85
2022-09-15T00:40:33.074Z,11.88
2022-09-15T00:41:33.019Z,11.93
2022-09-15T00:42:33.038Z,12.00
2022-09-15T00:43:33.059Z,12.02
2022-09-15T00:44:33.070Z,11.99
2022-09-15T00:45:33.142Z,11.99
2022-09-15T00:46:33.172Z,11.95
2022-09-15T00:47:33.199Z,11.93
2022-09-15T00:48:33.223Z,11.91
2022-09-15T00:49:33.253Z,11.89
2022-09-15T00:50:33.287Z,11.89
2022-09-15T00:51:33.321Z,11.91
2022-09-15T00:52:33.361Z,11.93
2022-09-15T00:53:33.381Z,11.95
2022-09-15T00:54:33.411Z,11.91
2022-09-15T00:55:33.427Z,11.95
2022-09-15T00:56:33.453Z,11.97
2022-09-15T00:57:33.482Z,12.03
2022-09-15T00:58:33.503Z,12.10
2022-09-15T00:59:33.524Z,12.14
2022-09-15T01:00:33.543Z,12.18
2022-09-15T01:01:33.667Z,12.18
2022-09-15T01:02:33.770Z,12.20
2022-09-15T01:03:33.615Z,12.21
2022-09-15T01:04:33.634Z,12.20
2022-09-15T01:05:33.645Z,12.21
2022-09-15T01:06:33.670Z,12.21
2022-09-15T01:07:33.713Z,12.25
2022-09-15T01:08:33.717Z,12.25
2022-09-15T01:09:33.732Z,12.25
2022-09-15T01:10:33.746Z,12.26
2022-09-15T01:11:33.765Z,12.26
2022-09-15T01:12:33.795Z,12.25
2022-09-15T01:13:33.807Z,12.26
2022-09-15T01:14:33.838Z,12.26
2022-09-15T01:15:33.859Z,12.28
2022-09-15T01:16:33.917Z,12.29
2022-09-15T01:17:33.917Z,12.32
2022-09-15T01:18:33.947Z,12.30
2022-09-15T01:19:33.978Z,12.36
2022-09-15T01:20:34.001Z,12.40
2022-09-15T01:21:34.018Z,12.47
2022-09-15T01:22:34.059Z,12.47
2022-09-15T01:23:34.081Z,12.47
2022-09-15T01:24:34.100Z,12.47
2022-09-15T01:25:34.120Z,12.53
2022-09-15T01:26:34.146Z,12.53
2022-09-15T01:27:42.912Z,12.57
2022-09-15T01:28:34.231Z,12.58
2022-09-15T01:29:34.251Z,12.58
2022-09-15T01:30:34.273Z,12.62
2022-09-15T01:31:34.303Z,12.61
2022-09-15T01:32:34.323Z,12.62
2022-09-15T01:33:34.363Z,12.66
2022-09-15T01:34:34.393Z,12.69
2022-09-15T01:35:34.421Z,12.72
2022-09-15T01:36:34.452Z,12.73
2022-09-15T01:37:34.483Z,12.76
2022-09-15T01:38:34.523Z,12.76
2022-09-15T01:39:34.553Z,12.76
2022-09-15T01:40:34.664Z,12.78
2022-09-15T01:41:34.636Z,12.78
2022-09-15T01:42:34.669Z,12.76
2022-09-15T01:43:34.705Z,12.80
2022-09-15T01:44:34.734Z,12.78
2022-09-15T01:45:34.913Z,12.81
2022-09-15T01:46:34.791Z,12.81
2022-09-15T01:47:34.816Z,12.81
2022-09-15T01:48:34.866Z,12.80
2022-09-15T01:49:34.887Z,12.81
2022-09-15T01:50:34.919Z,12.80
2022-09-15T01:51:34.937Z,12.80
2022-09-15T01:52:34.957Z,12.80
2022-09-15T01:53:34.998Z,12.80
2022-09-15T01:54:35.028Z,12.78
2022-09-15T01:55:35.056Z,12.80
2022-09-15T01:56:35.088Z,12.80
2022-09-15T01:57:35.119Z,12.76
2022-09-15T01:58:35.143Z,12.76
2022-09-15T01:59:35.183Z,12.76
2022-09-15T02:00:35.202Z,12.75
2022-09-15T02:01:35.291Z,12.75
2022-09-15T02:02:35.293Z,12.75
2022-09-15T02:03:35.252Z,12.75
2022-09-15T02:04:35.292Z,12.73
2022-09-15T02:05:35.328Z,12.75
2022-09-15T02:06:35.350Z,12.75
2022-09-15T02:07:35.383Z,12.75
2022-09-15T02:08:35.403Z,12.73
2022-09-15T02:09:35.440Z,12.75
2022-09-15T02:10:35.476Z,12.73
2022-09-15T02:11:35.493Z,12.73
2022-09-15T02:12:35.523Z,12.73
2022-09-15T02:13:35.553Z,12.73
2022-09-15T02:14:35.606Z,12.73
2022-09-15T02:15:35.624Z,12.72
2022-09-15T02:16:35.746Z,12.69
2022-09-15T02:17:35.726Z,12.69
2022-09-15T02:18:35.747Z,12.69
2022-09-15T02:19:35.776Z,12.69
2022-09-15T02:20:35.813Z,12.65
2022-09-15T02:21:35.849Z,12.57
2022-09-15T02:22:35.877Z,12.48
2022-09-15T02:23:35.896Z,12.45
2022-09-15T02:24:35.917Z,12.40
2022-09-15T02:25:35.941Z,12.39
2022-09-15T02:26:35.967Z,12.36
2022-09-15T02:27:36.008Z,12.35
2022-09-15T02:28:36.038Z,12.32
2022-09-15T02:29:36.058Z,12.23
2022-09-15T02:30:36.078Z,12.20
2022-09-15T02:31:36.151Z,12.17
2022-09-15T02:32:36.120Z,12.12
2022-09-15T02:33:36.140Z,12.14
2022-09-15T02:34:36.161Z,12.15
2022-09-15T02:35:36.185Z,12.18
2022-09-15T02:36:36.202Z,12.18
2022-09-15T02:37:36.258Z,12.17
2022-09-15T02:38:36.271Z,12.14
2022-09-15T02:39:36.301Z,12.11
2022-09-15T02:40:36.313Z,12.07
2022-09-15T02:41:36.332Z,12.00
2022-09-15T02:42:36.374Z,11.91
2022-09-15T02:43:36.412Z,11.85
2022-09-15T02:44:36.453Z,11.77
2022-09-15T02:45:36.534Z,11.78
2022-09-15T02:46:36.472Z,11.81
2022-09-15T02:47:36.503Z,11.77
2022-09-15T02:48:36.544Z,11.73
2022-09-15T02:49:36.589Z,11.71
2022-09-15T02:50:36.623Z,11.74
2022-09-15T02:51:36.644Z,11.77
2022-09-15T02:52:36.665Z,11.77
2022-09-15T02:53:36.704Z,11.77
2022-09-15T02:54:36.733Z,11.80
2022-09-15T02:55:36.755Z,11.91
2022-09-15T02:56:36.805Z,11.95
2022-09-15T02:57:36.825Z,11.97
2022-09-15T02:58:36.844Z,11.95
2022-09-15T02:59:36.866Z,11.93
2022-09-15T03:00:36.944Z,11.88
2022-09-15T03:01:36.941Z,11.83
2022-09-15T03:02:36.897Z,11.77
2022-09-15T03:03:39.891Z,11.74
2022-09-15T03:04:36.977Z,11.77
2022-09-15T03:05:37.017Z,11.81
2022-09-15T03:06:37.078Z,11.81
2022-09-15T03:07:37.108Z,11.78
2022-09-15T03:08:37.139Z,11.74
2022-09-15T03:09:37.190Z,11.67
2022-09-15T03:10:37.227Z,11.63
2022-09-15T03:11:37.261Z,11.62
2022-09-15T03:12:37.299Z,11.58
2022-09-15T03:13:37.332Z,11.58
2022-09-15T03:14:37.361Z,11.63
2022-09-15T03:15:37.391Z,11.63
2022-09-15T03:16:37.442Z,11.62
2022-09-15T03:17:37.481Z,11.59
2022-09-15T03:18:37.522Z,11.60
2022-09-15T03:19:37.560Z,11.62
2022-09-15T03:20:37.582Z,11.60
2022-09-15T03:21:37.612Z,11.58
2022-09-15T03:22:37.633Z,11.60
2022-09-15T03:23:37.680Z,11.67
2022-09-15T03:24:37.702Z,11.63
2022-09-15T03:25:37.734Z,11.56
2022-09-15T03:26:37.766Z,11.52
2022-09-15T03:27:37.795Z,11.49
2022-09-15T03:28:37.833Z,11.48
2022-09-15T03:29:37.874Z,11.43
2022-09-15T03:30:37.902Z,11.43
2022-09-15T03:31:38.001Z,11.45
2022-09-15T03:32:37.946Z,11.45
2022-09-15T03:33:38.003Z,11.45
2022-09-15T03:34:38.036Z,11.48
2022-09-15T03:35:38.087Z,11.52
2022-09-15T03:36:38.134Z,11.53
2022-09-15T03:37:38.146Z,11.58
2022-09-15T03:38:38.176Z,11.62
2022-09-15T03:39:38.216Z,11.65
2022-09-15T03:40:38.247Z,11.68
2022-09-15T03:41:38.277Z,11.71
2022-09-15T03:42:38.307Z,11.76
2022-09-15T03:43:38.337Z,11.78
2022-09-15T03:44:38.379Z,11.80
2022-09-15T03:45:38.460Z,11.85
2022-09-15T03:46:38.418Z,11.85
2022-09-15T03:47:38.448Z,11.88
2022-09-15T03:48:38.480Z,11.91
2022-09-15T03:49:38.533Z,11.91
2022-09-15T03:50:38.549Z,11.95
2022-09-15T03:51:38.570Z,11.97
2022-09-15T03:52:38.641Z,12.00
2022-09-15T03:53:38.658Z,12.00
2022-09-15T03:54:38.693Z,12.05
2022-09-15T03:55:38.725Z,12.10
2022-09-15T03:56:38.746Z,12.07
2022-09-15T03:57:38.761Z,12.10
2022-09-15T03:58:38.794Z,12.11
2022-09-15T03:59:38.811Z,12.10
2022-09-15T04:00:38.860Z,12.10
2022-09-15T04:01:38.955Z,12.12
2022-09-15T04:02:38.920Z,12.11
2022-09-15T04:03:45.230Z,12.12
2022-09-15T04:04:38.942Z,12.11
2022-09-15T04:05:38.963Z,12.12
2022-09-15T04:06:39.000Z,12.11
2022-09-15T04:07:39.037Z,12.14
2022-09-15T04:08:39.055Z,12.12
2022-09-15T04:09:39.085Z,12.12
2022-09-15T04:10:39.095Z,12.11
2022-09-15T04:11:39.125Z,12.12
2022-09-15T04:12:39.155Z,12.14
2022-09-15T04:13:39.177Z,12.14
2022-09-15T04:14:39.214Z,12.12
2022-09-15T04:15:39.236Z,12.11
2022-09-15T04:16:39.332Z,12.12
2022-09-15T04:17:39.298Z,12.12
2022-09-15T04:18:39.307Z,12.12
2022-09-15T04:19:39.339Z,12.14
2022-09-15T04:20:39.366Z,12.12
2022-09-15T04:21:39.404Z,12.12
2022-09-15T04:22:39.418Z,12.11
2022-09-15T04:23:39.439Z,12.08
2022-09-15T04:24:39.470Z,12.07
2022-09-15T04:25:39.489Z,12.07
2022-09-15T04:26:39.519Z,12.08
2022-09-15T04:27:39.559Z,12.08
2022-09-15T04:28:39.579Z,12.08
2022-09-15T04:29:39.599Z,12.07
2022-09-15T04:30:39.610Z,12.05
2022-09-15T04:31:39.679Z,12.05
2022-09-15T04:32:39.641Z,12.05
2022-09-15T04:33:39.651Z,12.05
2022-09-15T04:34:41.476Z,12.05
2022-09-15T04:35:39.731Z,12.05
2022-09-15T04:36:39.753Z,12.05
2022-09-15T04:37:39.792Z,12.07
2022-09-15T04:38:39.828Z,12.08
2022-09-15T04:39:39.844Z,12.10
2022-09-15T04:40:39.853Z,12.11
2022-09-15T04:41:39.871Z,12.12
2022-09-15T04:42:39.895Z,12.11
2022-09-15T04:43:39.937Z,12.12
2022-09-15T04:44:39.967Z,12.12
2022-09-15T04:45:40.015Z,12.11
2022-09-15T04:46:40.115Z,12.12
2022-09-15T04:47:40.023Z,12.14
2022-09-15T04:48:40.057Z,12.15
2022-09-15T04:49:40.115Z,12.15
2022-09-15T04:50:40.176Z,12.15
2022-09-15T04:51:40.218Z,12.15
2022-09-15T04:52:40.267Z,12.14
2022-09-15T04:53:40.317Z,12.15
2022-09-15T04:54:40.367Z,12.14
2022-09-15T04:55:40.427Z,12.15
2022-09-15T04:56:40.489Z,12.15
2022-09-15T04:57:40.538Z,12.15
2022-09-15T04:58:40.588Z,12.17
2022-09-15T04:59:40.637Z,12.15
2022-09-15T05:00:40.724Z,12.15
2022-09-15T05:01:40.737Z,12.17
2022-09-15T05:02:40.741Z,12.20
2022-09-15T05:03:40.760Z,12.21
2022-09-15T05:04:40.790Z,12.21
2022-09-15T05:05:40.831Z,12.20
2022-09-15T05:06:40.858Z,12.20
2022-09-15T05:07:40.905Z,12.20
2022-09-15T05:08:40.930Z,12.20
2022-09-15T05:09:40.963Z,12.18
2022-09-15T05:10:40.983Z,12.18
2022-09-15T05:11:41.022Z,12.18
2022-09-15T05:12:41.082Z,12.18
2022-09-15T05:13:41.123Z,12.20
2022-09-15T05:14:41.173Z,12.18
2022-09-15T05:15:41.222Z,12.18
2022-09-15T05:16:41.329Z,12.17
2022-09-15T05:17:41.324Z,12.18
2022-09-15T05:18:41.337Z,12.20
2022-09-15T05:19:41.326Z,12.18
2022-09-15T05:20:41.314Z,12.20
2022-09-15T05:21:41.305Z,12.20
2022-09-15T05:22:42.084Z,12.21
2022-09-15T05:23:41.356Z,12.20
2022-09-15T05:24:41.345Z,12.21
2022-09-15T05:25:41.387Z,12.18
2022-09-15T05:26:41.416Z,12.21
2022-09-15T05:27:41.599Z,12.21
2022-09-15T05:28:41.478Z,12.25
2022-09-15T05:29:41.518Z,12.26
2022-09-15T05:30:44.225Z,12.29
2022-09-15T05:31:41.675Z,12.30
2022-09-15T05:32:41.680Z,12.33
2022-09-15T05:33:41.673Z,12.33
2022-09-15T05:34:41.662Z,12.35
2022-09-15T05:35:41.639Z,12.35
2022-09-15T05:36:41.799Z,12.37
2022-09-15T05:37:41.740Z,12.39
2022-09-15T05:38:41.855Z,12.39
2022-09-15T05:39:41.770Z,12.43
2022-09-15T05:40:41.841Z,12.47
2022-09-15T05:41:41.840Z,12.48
2022-09-15T05:42:41.849Z,12.54
2022-09-15T05:43:41.911Z,12.57
2022-09-15T05:44:41.933Z,12.61
2022-09-15T05:45:41.983Z,12.65
2022-09-15T05:46:42.045Z,12.66
2022-09-15T05:47:42.015Z,12.65
2022-09-15T05:48:42.022Z,12.63
2022-09-15T05:49:42.013Z,12.65
2022-09-15T05:50:42.015Z,12.63
2022-09-15T05:51:42.025Z,12.63
2022-09-15T05:52:42.014Z,12.63
2022-09-15T05:53:42.169Z,12.66
2022-09-15T05:54:42.136Z,12.66
2022-09-15T05:55:42.155Z,12.69
2022-09-15T05:56:42.204Z,12.69
2022-09-15T05:57:42.235Z,12.73
2022-09-15T05:58:42.247Z,12.80
2022-09-15T05:59:42.276Z,12.81
2022-09-15T06:00:42.296Z,12.81
2022-09-15T06:01:42.365Z,12.84
2022-09-15T06:02:42.393Z,12.87
2022-09-15T06:03:42.387Z,12.87
2022-09-15T06:04:42.429Z,12.87
2022-09-15T06:05:42.459Z,12.87
2022-09-15T06:06:42.478Z,12.88
2022-09-15T06:07:42.478Z,12.87
2022-09-15T06:08:44.236Z,12.87
2022-09-15T06:09:42.559Z,12.90
2022-09-15T06:10:42.560Z,12.86
2022-09-15T06:11:42.579Z,12.90
2022-09-15T06:12:42.601Z,12.91
2022-09-15T06:13:42.629Z,12.90
2022-09-15T06:14:42.659Z,12.90
2022-09-15T06:15:42.712Z,12.93
2022-09-15T06:16:42.680Z,12.94
2022-09-15T06:17:42.668Z,12.91
2022-09-15T06:18:42.682Z,12.90
2022-09-15T06:19:42.702Z,12.94
2022-09-15T06:20:42.684Z,12.91
2022-09-15T06:21:42.776Z,12.90
2022-09-15T06:22:42.802Z,12.91
2022-09-15T06:23:45.008Z,12.93
2022-09-15T06:24:42.854Z,12.95
2022-09-15T06:25:42.853Z,13.01
2022-09-15T06:26:42.913Z,12.99
2022-09-15T06:27:42.995Z,13.02
2022-09-15T06:28:43.005Z,13.06
2022-09-15T06:29:43.013Z,13.03
2022-09-15T06:30:43.037Z,13.03
2022-09-15T06:31:43.095Z,13.05
2022-09-15T06:32:47.380Z,13.08
2022-09-15T06:33:43.179Z,13.09
2022-09-15T06:34:43.166Z,13.11
2022-09-15T06:35:43.226Z,13.11
2022-09-15T06:36:43.238Z,13.13
2022-09-15T06:37:43.298Z,13.19
2022-09-15T06:38:43.347Z,13.26
2022-09-15T06:39:43.387Z,13.30
2022-09-15T06:40:43.447Z,13.40
2022-09-15T06:42:01.145Z,13.42
2022-09-15T06:42:43.459Z,13.42
2022-09-15T06:43:43.499Z,13.49
2022-09-15T06:44:43.539Z,13.50
2022-09-15T06:45:43.589Z,13.52
2022-09-15T06:46:43.620Z,13.57
2022-09-15T06:47:43.653Z,13.60
2022-09-15T06:48:47.557Z,13.62
2022-09-15T06:49:43.701Z,13.64
2022-09-15T06:50:43.760Z,13.61
2022-09-15T06:51:43.801Z,13.60
2022-09-15T06:52:43.812Z,13.61
2022-09-15T06:53:43.812Z,13.61
2022-09-15T06:54:43.883Z,13.55
2022-09-15T06:55:43.934Z,13.54
2022-09-15T06:56:43.962Z,13.46
2022-09-15T06:57:43.983Z,13.46
2022-09-15T06:58:43.994Z,13.43
2022-09-15T06:59:43.974Z,13.43
2022-09-15T07:00:44.004Z,13.43
2022-09-15T07:01:44.016Z,13.50
2022-09-15T07:02:44.180Z,13.58
2022-09-15T07:03:44.174Z,13.60
2022-09-15T07:04:44.145Z,13.62
2022-09-15T07:05:44.191Z,13.65
2022-09-15T07:06:44.206Z,13.68
2022-09-15T07:07:44.266Z,13.71
2022-09-15T07:08:44.423Z,13.71
2022-09-15T07:09:48.423Z,13.73
2022-09-15T07:10:44.377Z,13.78
2022-09-15T07:11:44.348Z,13.80
2022-09-15T07:12:44.398Z,13.83
2022-09-15T07:13:44.499Z,13.83
2022-09-15T07:14:44.556Z,13.85
2022-09-15T07:15:44.499Z,13.87
2022-09-15T07:16:44.603Z,13.89
2022-09-15T07:17:44.580Z,13.97
2022-09-15T07:18:44.612Z,14.01
2022-09-15T07:19:44.620Z,13.98
2022-09-15T07:20:44.650Z,14.07
2022-09-15T07:21:44.720Z,14.16
2022-09-15T07:22:44.744Z,14.23
2022-09-15T07:23:44.906Z,14.30
2022-09-15T07:24:44.817Z,14.33
2022-09-15T07:25:44.831Z,14.30
2022-09-15T07:26:44.901Z,14.30
2022-09-15T07:27:44.932Z,14.34
2022-09-15T07:28:44.960Z,14.43
2022-09-15T07:29:44.964Z,14.51
2022-09-15T07:30:45.003Z,14.59
2022-09-15T07:31:45.117Z,14.58
2022-09-15T07:32:45.125Z,14.67
2022-09-15T07:33:45.208Z,14.77
2022-09-15T07:34:45.239Z,14.85
2022-09-15T07:35:45.282Z,14.86
2022-09-15T07:36:45.342Z,14.86
2022-09-15T07:37:45.406Z,14.89
2022-09-15T07:38:45.455Z,14.92
2022-09-15T07:39:45.506Z,14.85
2022-09-15T07:40:45.477Z,14.77
2022-09-15T07:41:45.518Z,14.73
2022-09-15T07:42:45.547Z,14.67
2022-09-15T07:45:11.649Z,14.62
2022-09-15T07:46:11.714Z,14.66
2022-09-15T07:47:11.694Z,14.71
2022-09-15T07:48:11.732Z,14.86
2022-09-15T07:49:11.745Z,14.94
2022-09-15T07:50:11.780Z,14.96
2022-09-15T07:51:11.804Z,15.00
2022-09-15T07:52:11.828Z,15.04
2022-09-15T07:53:28.361Z,15.08
2022-09-15T07:54:11.948Z,15.12
2022-09-15T07:55:11.986Z,15.25
2022-09-15T07:56:12.028Z,15.27
2022-09-15T07:57:13.021Z,15.32
2022-09-15T07:58:12.129Z,15.33
2022-09-15T07:59:12.191Z,15.30
2022-09-15T08:00:12.160Z,15.27
2022-09-15T08:01:12.276Z,15.29
2022-09-15T08:02:13.202Z,15.30
2022-09-15T08:03:12.280Z,15.32
2022-09-15T08:04:12.311Z,15.27
2022-09-15T08:05:12.344Z,15.26
2022-09-15T08:06:12.350Z,15.33
2022-09-15T08:07:12.352Z,15.39
2022-09-15T08:08:12.441Z,15.43
2022-09-15T08:09:12.392Z,15.48
2022-09-15T08:10:12.412Z,15.44
2022-09-15T08:11:17.682Z,15.45
2022-09-15T08:12:12.443Z,15.43
2022-09-15T08:13:12.513Z,15.41
2022-09-15T08:14:12.554Z,15.43
2022-09-15T08:15:12.584Z,15.44
2022-09-15T08:16:12.663Z,15.47
2022-09-15T08:17:12.631Z,15.50
2022-09-15T08:18:12.606Z,15.69
2022-09-15T08:19:12.685Z,15.80
2022-09-15T08:20:12.715Z,15.80
2022-09-15T08:21:12.784Z,15.88
2022-09-15T08:22:12.806Z,15.90
2022-09-15T08:23:12.857Z,15.85
2022-09-15T08:24:12.915Z,15.90
2022-09-15T08:25:12.957Z,15.98
2022-09-15T08:26:14.303Z,16.02
2022-09-15T08:27:13.080Z,15.96
2022-09-15T08:28:13.130Z,16.09
2022-09-15T08:29:13.198Z,15.98
2022-09-15T08:30:13.240Z,15.92
2022-09-15T08:31:13.351Z,16.09
2022-09-15T08:32:13.355Z,16.34
2022-09-15T08:33:13.413Z,16.58
2022-09-15T08:34:13.460Z,16.69
2022-09-15T08:35:13.511Z,16.82
2022-09-15T08:36:13.616Z,16.69
2022-09-15T08:37:13.573Z,16.69
2022-09-15T08:38:13.622Z,16.74
2022-09-15T08:39:13.670Z,16.84
2022-09-15T08:40:13.809Z,16.73
2022-09-15T08:41:13.743Z,16.84
2022-09-15T08:42:13.793Z,16.99
2022-09-15T08:43:13.866Z,17.14
2022-09-15T08:44:13.845Z,17.41
2022-09-15T08:45:13.865Z,17.76
2022-09-15T08:46:13.949Z,17.93
2022-09-15T08:47:13.936Z,17.98
2022-09-15T08:48:13.974Z,19.01
2022-09-15T08:49:13.996Z,19.90
2022-09-15T08:50:13.996Z,19.62
2022-09-15T08:51:14.007Z,19.71
2022-09-15T08:52:13.997Z,19.52
2022-09-15T08:53:14.092Z,19.01
2022-09-15T08:54:14.113Z,18.82
2022-09-15T08:55:14.131Z,18.96
2022-09-15T08:56:14.163Z,18.83
2022-09-15T08:57:14.179Z,18.78
2022-09-15T08:58:14.178Z,19.22
2022-09-15T08:59:15.129Z,19.70
2022-09-15T09:00:14.204Z,19.89
2022-09-15T09:01:14.281Z,19.92
2022-09-15T09:02:14.212Z,19.39
2022-09-15T09:03:14.312Z,19.04
2022-09-15T09:04:17.956Z,18.61
2022-09-15T09:05:14.315Z,18.79
2022-09-15T09:06:14.343Z,19.47
2022-09-15T09:07:14.350Z,19.39
2022-09-15T09:08:14.345Z,19.16
2022-09-15T09:09:14.377Z,19.30
2022-09-15T09:10:14.333Z,19.38
2022-09-15T09:11:14.397Z,18.89
2022-09-15T09:12:14.456Z,18.24
2022-09-15T09:13:14.446Z,18.23
2022-09-15T09:14:14.452Z,18.55
2022-09-15T09:15:14.429Z,18.34
2022-09-15T09:16:14.547Z,17.87
2022-09-15T09:17:14.892Z,18.08
2022-09-15T09:18:14.499Z,18.45
2022-09-15T09:19:14.529Z,18.66
2022-09-15T09:20:14.598Z,18.55
2022-09-15T09:21:14.590Z,18.63
2022-09-15T09:22:14.607Z,18.88
2022-09-15T09:23:14.641Z,19.59
2022-09-15T09:24:14.650Z,19.60
2022-09-15T09:25:26.724Z,19.41
2022-09-15T09:26:14.705Z,19.63
2022-09-15T09:27:14.781Z,20.24
2022-09-15T09:28:14.865Z,19.38
2022-09-15T09:29:14.824Z,18.96
2022-09-15T09:30:14.825Z,19.70
2022-09-15T09:31:14.904Z,18.97
2022-09-15T09:32:16.848Z,18.67
2022-09-15T09:33:14.994Z,19.44
2022-09-15T09:34:14.986Z,20.04
2022-09-15T09:35:14.976Z,20.33
2022-09-15T09:36:15.045Z,20.19
2022-09-15T09:37:15.819Z,19.44
2022-09-15T09:38:15.078Z,19.09
2022-09-15T09:39:15.071Z,19.01
2022-09-15T09:40:15.149Z,19.11
2022-09-15T09:41:15.137Z,19.41
2022-09-15T09:42:15.180Z,19.93
2022-09-15T09:43:15.261Z,20.08
2022-09-15T09:44:15.300Z,20.26
2022-09-15T09:45:15.361Z,20.08
2022-09-15T09:46:15.466Z,19.48
2022-09-15T09:47:15.404Z,18.89
2022-09-15T09:48:15.464Z,18.51
2022-09-15T09:49:15.473Z,18.31
2022-09-15T09:50:15.510Z,18.26
2022-09-15T09:51:15.533Z,18.00
2022-09-15T09:52:18.919Z,17.95
2022-09-15T09:53:15.575Z,17.82
2022-09-15T09:54:15.597Z,17.72
2022-09-15T09:55:15.647Z,17.68
2022-09-15T09:56:15.688Z,17.76
2022-09-15T09:57:15.684Z,18.00
2022-09-15T09:58:15.745Z,18.08
2022-09-15T09:59:15.787Z,18.12
2022-09-15T10:00:15.808Z,18.15
2022-09-15T10:01:15.994Z,18.11
2022-09-15T10:02:15.937Z,18.23
2022-09-15T10:03:15.988Z,18.39
2022-09-15T10:04:16.035Z,18.76
2022-09-15T10:05:16.847Z,19.47
2022-09-15T10:06:16.068Z,19.72
2022-09-15T10:07:16.061Z,19.70
2022-09-15T10:08:16.061Z,19.72
2022-09-15T10:09:16.100Z,20.42
2022-09-15T10:10:16.140Z,20.53
2022-09-15T10:11:16.121Z,20.70
2022-09-15T10:12:16.132Z,20.24
2022-09-15T10:13:16.271Z,19.99
2022-09-15T10:14:16.245Z,19.53
2022-09-15T10:15:16.293Z,19.32
2022-09-15T10:16:16.346Z,19.30
2022-09-15T10:17:16.318Z,18.98
2022-09-15T10:18:16.381Z,19.04
2022-09-15T10:19:16.384Z,19.12
2022-09-15T10:20:16.446Z,18.98
2022-09-15T10:21:16.455Z,18.85
2022-09-15T10:22:16.498Z,19.44
2022-09-15T10:23:16.550Z,19.57
2022-09-15T10:24:18.194Z,19.99
2022-09-15T10:25:16.625Z,19.59
2022-09-15T10:26:16.706Z,19.63
2022-09-15T10:27:16.718Z,19.81
2022-09-15T10:28:16.771Z,19.26
2022-09-15T10:29:16.829Z,18.91
2022-09-15T10:30:16.870Z,19.22
2022-09-15T10:31:16.930Z,19.16
2022-09-15T10:32:16.946Z,19.20
2022-09-15T10:33:16.951Z,19.05
2022-09-15T10:34:17.003Z,19.08
2022-09-15T10:35:16.992Z,19.30
2022-09-15T10:36:17.003Z,19.17
2022-09-15T10:37:17.072Z,19.44
2022-09-15T10:38:17.083Z,19.87
2022-09-15T10:39:17.094Z,20.11
2022-09-15T10:40:17.212Z,20.39
2022-09-15T10:41:17.175Z,21.07
2022-09-15T10:42:17.199Z,21.30
2022-09-15T10:43:17.248Z,20.59
2022-09-15T10:44:17.247Z,20.34
2022-09-15T10:45:17.326Z,20.04
2022-09-15T10:46:17.402Z,20.04
2022-09-15T10:47:17.339Z,20.67
2022-09-15T10:48:17.388Z,20.96
2022-09-15T10:49:17.389Z,21.26
2022-09-15T10:50:17.430Z,21.29
2022-09-15T10:51:17.429Z,21.19
2022-09-15T10:52:17.541Z,20.83
2022-09-15T10:53:17.475Z,20.29
2022-09-15T10:54:17.461Z,20.00
2022-09-15T10:55:27.631Z,19.84
2022-09-15T10:56:17.552Z,19.55
2022-09-15T10:57:17.635Z,19.71
2022-09-15T10:58:17.532Z,19.77
2022-09-15T10:59:17.524Z,19.81
2022-09-15T11:00:17.573Z,19.71
2022-09-15T11:01:17.669Z,19.44
2022-09-15T11:02:17.681Z,19.37
2022-09-15T11:03:17.613Z,19.48
2022-09-15T11:04:17.666Z,19.62
2022-09-15T11:05:22.773Z,19.87
2022-09-15T11:06:17.746Z,20.07
2022-09-15T11:07:17.786Z,20.40
2022-09-15T11:08:17.812Z,20.36
2022-09-15T11:09:17.796Z,19.59
2022-09-15T11:10:17.858Z,19.56
2022-09-15T11:11:17.848Z,19.64
2022-09-15T11:12:17.918Z,19.77
2022-09-15T11:13:17.891Z,19.72
2022-09-15T11:14:17.905Z,19.56
2022-09-15T11:15:17.910Z,19.39
2022-09-15T11:16:18.076Z,19.45
2022-09-15T11:17:17.995Z,19.24
2022-09-15T11:18:18.042Z,19.11
2022-09-15T11:19:18.110Z,19.05
2022-09-15T11:20:18.111Z,19.11
2022-09-15T11:21:18.167Z,19.34
2022-09-15T11:22:18.213Z,19.44
2022-09-15T11:23:18.213Z,19.55
2022-09-15T11:24:18.273Z,19.85
2022-09-15T11:25:18.313Z,20.24
2022-09-15T11:26:18.367Z,20.11
2022-09-15T11:27:18.424Z,19.72
2022-09-15T11:28:18.464Z,19.66
2022-09-15T11:29:18.516Z,19.57
2022-09-15T11:30:18.506Z,19.49
2022-09-15T11:31:18.621Z,19.47
2022-09-15T11:32:18.568Z,19.93
2022-09-15T11:33:18.638Z,19.66
2022-09-15T11:34:18.677Z,19.49
2022-09-15T11:35:18.728Z,19.37
2022-09-15T11:36:18.768Z,19.41
2022-09-15T11:37:18.830Z,19.79
2022-09-15T11:38:18.919Z,20.12
2022-09-15T11:39:19.057Z,20.33
2022-09-15T11:40:19.027Z,20.10
2022-09-15T11:41:19.016Z,19.99
2022-09-15T11:42:19.138Z,20.55
2022-09-15T11:43:19.134Z,20.40
2022-09-15T11:44:19.175Z,20.40
2022-09-15T11:45:19.234Z,20.55
2022-09-15T11:46:19.307Z,20.85
2022-09-15T11:47:19.233Z,20.75
2022-09-15T11:48:19.224Z,20.74
2022-09-15T11:49:19.298Z,20.26
2022-09-15T11:50:19.288Z,20.04
2022-09-15T11:51:19.473Z,20.12
2022-09-15T11:52:19.311Z,20.00
2022-09-15T11:53:19.373Z,19.81
2022-09-15T11:54:19.345Z,19.63
2022-09-15T11:55:19.405Z,19.77
2022-09-15T11:56:19.478Z,20.03
2022-09-15T11:57:19.539Z,20.04
2022-09-15T11:58:22.081Z,19.99
2022-09-15T11:59:19.628Z,19.94
2022-09-15T12:00:19.690Z,19.93
2022-09-15T12:01:19.699Z,20.29
2022-09-15T12:02:19.876Z,20.58
2022-09-15T12:03:19.857Z,20.88
2022-09-15T12:04:19.886Z,21.03
2022-09-15T12:05:19.895Z,21.10
2022-09-15T12:06:19.950Z,20.98
2022-09-15T12:07:20.010Z,20.55
2022-09-15T12:08:19.992Z,20.64
2022-09-15T12:09:20.034Z,21.25
2022-09-15T12:10:20.084Z,21.53
2022-09-15T12:11:20.149Z,21.62
2022-09-15T12:12:20.184Z,21.35
2022-09-15T12:13:20.179Z,21.13
2022-09-15T12:14:20.225Z,20.89
2022-09-15T12:15:20.204Z,20.68
2022-09-15T12:16:20.376Z,20.78
2022-09-15T12:17:20.296Z,21.25
2022-09-15T12:18:37.822Z,21.01
2022-09-15T12:19:20.356Z,20.70
2022-09-15T12:20:20.359Z,20.50
2022-09-15T12:21:20.427Z,20.60
2022-09-15T12:22:20.396Z,20.46
2022-09-15T12:23:20.438Z,20.95
2022-09-15T12:24:20.459Z,21.28
2022-09-15T12:25:20.489Z,20.93
2022-09-15T12:26:20.520Z,20.67
2022-09-15T12:27:20.596Z,20.21
2022-09-15T12:28:20.590Z,19.85
2022-09-15T12:29:20.601Z,19.62
2022-09-15T12:30:20.720Z,19.52
2022-09-15T12:31:21.079Z,19.45
2022-09-15T12:32:20.703Z,19.30
2022-09-15T12:33:20.764Z,19.26
2022-09-15T12:34:20.983Z,19.22
2022-09-15T12:35:20.814Z,19.19
2022-09-15T12:36:20.954Z,19.12
2022-09-15T12:37:20.865Z,19.08
2022-09-15T12:38:20.950Z,19.11
2022-09-15T12:39:20.903Z,19.07
2022-09-15T12:40:21.036Z,19.09
2022-09-15T12:41:20.974Z,19.08
2022-09-15T12:42:21.015Z,19.04
2022-09-15T12:43:21.058Z,18.89
2022-09-15T12:44:21.088Z,18.83
2022-09-15T12:45:21.152Z,18.83
2022-09-15T12:46:21.220Z,18.79
2022-09-15T12:47:21.243Z,18.82
2022-09-15T12:48:21.305Z,18.86
2022-09-15T12:49:21.300Z,18.89
2022-09-15T12:50:21.312Z,18.89
2022-09-15T12:51:21.360Z,18.79
2022-09-15T12:52:21.400Z,18.79
2022-09-15T12:53:21.435Z,18.82
2022-09-15T12:54:21.453Z,18.83